createdAt,value
2023-04-10T00:02:25.870Z,4.60
2023-04-10T00:04:53.010Z,5.63
2023-04-10T00:07:19.895Z,5.07
2023-04-10T00:09:46.604Z,9.67
2023-04-10T00:12:14.553Z,4.57
2023-04-10T00:14:41.484Z,4.70
2023-04-10T00:17:08.216Z,4.73
2023-04-10T00:19:34.917Z,4.57
2023-04-10T00:22:01.669Z,5.23
2023-04-10T00:24:28.380Z,4.67
2023-04-10T00:26:56.853Z,4.87
2023-04-10T00:29:24.395Z,5.07
2023-04-10T00:31:51.254Z,4.53
2023-04-10T00:34:17.991Z,5.00
2023-04-10T00:36:46.789Z,4.90
2023-04-10T00:39:14.194Z,4.93
2023-04-10T00:41:41.136Z,5.50
2023-04-10T00:44:08.701Z,4.93
2023-04-10T00:46:37.830Z,5.43
2023-04-10T00:49:04.847Z,5.00
2023-04-10T00:51:33.155Z,4.70
2023-04-10T00:54:02.218Z,5.20
2023-04-10T00:56:32.170Z,5.30
2023-04-10T00:58:58.932Z,5.17
2023-04-10T01:01:26.232Z,5.07
2023-04-10T01:03:54.671Z,4.97
2023-04-10T01:06:21.643Z,5.50
2023-04-10T01:09:03.996Z,4.93
2023-04-10T01:11:52.500Z,5.13
2023-04-10T01:14:38.047Z,5.00
2023-04-10T01:17:30.490Z,5.33
2023-04-10T01:20:31.656Z,6.53
2023-04-10T01:23:26.754Z,5.30
2023-04-10T01:26:14.110Z,5.13
2023-04-10T01:28:56.127Z,5.93
2023-04-10T01:31:38.271Z,5.10
2023-04-10T01:34:09.326Z,4.83
2023-04-10T01:36:45.187Z,5.00
2023-04-10T01:39:12.439Z,4.93
2023-04-10T01:41:43.961Z,5.87
2023-04-10T01:44:15.097Z,5.63
2023-04-10T01:46:44.679Z,5.53
2023-04-10T01:49:13.292Z,6.13
2023-04-10T01:51:40.642Z,5.40
2023-04-10T01:54:10.698Z,6.27
2023-04-10T01:56:38.485Z,5.97
2023-04-10T01:59:06.475Z,5.30
2023-04-10T02:01:33.272Z,6.27
2023-04-10T02:04:00.610Z,6.10
2023-04-10T02:06:36.531Z,5.73
2023-04-10T02:09:32.682Z,5.20
2023-04-10T02:12:04.741Z,5.47
2023-04-10T02:14:33.330Z,5.47
2023-04-10T02:17:02.640Z,6.13
2023-04-10T02:19:33.136Z,5.93
2023-04-10T02:22:00.138Z,6.40
2023-04-10T02:24:27.454Z,6.90
2023-04-10T02:26:54.182Z,5.60
2023-04-10T02:29:21.411Z,5.60
2023-04-10T02:31:49.002Z,6.03
2023-04-10T02:34:18.324Z,6.37
2023-04-10T02:36:45.148Z,5.80
2023-04-10T02:39:12.611Z,5.90
2023-04-10T02:41:47.479Z,5.50
2023-04-10T02:44:14.572Z,6.23
2023-04-10T02:46:42.146Z,5.63
2023-04-10T02:49:09.359Z,6.13
2023-04-10T02:51:36.676Z,5.67
2023-04-10T02:54:04.509Z,5.47
2023-04-10T02:56:35.874Z,6.30
2023-04-10T02:59:03.398Z,6.93
2023-04-10T03:01:31.194Z,6.33
2023-04-10T03:03:58.864Z,5.90
2023-04-10T03:06:32.902Z,6.37
2023-04-10T03:08:59.660Z,6.40
2023-04-10T03:11:27.527Z,7.27
2023-04-10T03:14:00.336Z,5.97
2023-04-10T03:16:27.121Z,5.73
2023-04-10T03:18:53.956Z,6.90
2023-04-10T03:21:21.457Z,7.20
2023-04-10T03:23:49.075Z,6.20
2023-04-10T03:26:15.851Z,6.33
2023-04-10T03:28:42.561Z,5.50
2023-04-10T03:31:12.316Z,6.93
2023-04-10T03:33:40.635Z,5.80
2023-04-10T03:36:08.141Z,7.27
2023-04-10T03:38:34.922Z,5.90
2023-04-10T03:41:02.475Z,6.20
2023-04-10T03:43:31.811Z,6.90
2023-04-10T03:46:00.124Z,7.27
2023-04-10T03:48:28.536Z,8.40
2023-04-10T03:50:58.551Z,6.73
2023-04-10T03:53:25.398Z,6.97
2023-04-10T03:55:53.902Z,7.10
2023-04-10T03:58:22.319Z,6.77
2023-04-10T04:00:49.520Z,6.80
2023-04-10T04:03:29.046Z,6.27
2023-04-10T04:05:56.247Z,6.40
2023-04-10T04:08:27.963Z,6.37
2023-04-10T04:11:08.658Z,7.27
2023-04-10T04:13:44.157Z,6.87
2023-04-10T04:16:24.580Z,6.50
2023-04-10T04:18:59.020Z,6.43
2023-04-10T04:21:40.378Z,6.50
2023-04-10T04:24:20.353Z,7.03
2023-04-10T04:26:56.411Z,6.43
2023-04-10T04:29:41.597Z,7.00
2023-04-10T04:32:16.795Z,7.53
2023-04-10T04:35:02.725Z,7.23
2023-04-10T04:37:48.293Z,6.60
2023-04-10T04:40:17.851Z,6.40
2023-04-10T04:43:07.359Z,7.40
2023-04-10T04:45:52.661Z,7.00
2023-04-10T04:48:39.571Z,6.80
2023-04-10T04:51:32.445Z,7.23
2023-04-10T04:54:05.326Z,6.73
2023-04-10T04:56:41.082Z,7.13
2023-04-10T04:59:22.661Z,7.03
2023-04-10T05:02:03.249Z,8.90
2023-04-10T05:04:42.140Z,7.20
2023-04-10T05:07:21.145Z,6.90
2023-04-10T05:10:09.162Z,7.23
2023-04-10T05:12:54.698Z,13.63
2023-04-10T05:15:25.927Z,12.40
2023-04-10T05:18:14.103Z,12.43
2023-04-10T05:21:01.222Z,11.80
2023-04-10T05:23:46.537Z,9.63
2023-04-10T05:26:42.669Z,14.07
2023-04-10T05:29:25.439Z,14.67
2023-04-10T05:32:12.546Z,14.73
2023-04-10T05:34:51.381Z,12.27
2023-04-10T05:37:34.733Z,10.93
2023-04-10T05:40:21.358Z,10.00
2023-04-10T05:42:57.634Z,8.77
2023-04-10T05:45:51.736Z,7.33
2023-04-10T05:48:39.037Z,8.60
2023-04-10T05:51:22.963Z,9.00
2023-04-10T05:54:19.327Z,9.87
2023-04-10T05:57:04.621Z,9.77
2023-04-10T05:59:33.940Z,9.93
2023-04-10T06:02:12.173Z,9.50
2023-04-10T06:04:39.617Z,10.77
2023-04-10T06:07:06.935Z,8.60
2023-04-10T06:09:33.851Z,9.00
2023-04-10T06:12:01.374Z,8.33
2023-04-10T06:14:28.221Z,9.87
2023-04-10T06:16:56.657Z,6.83
2023-04-10T06:19:23.436Z,6.80
2023-04-10T06:21:53.140Z,7.67
2023-04-10T06:24:21.082Z,7.40
2023-04-10T06:26:47.787Z,6.60
2023-04-10T06:29:14.539Z,7.97
2023-04-10T06:31:41.258Z,7.17
2023-04-10T06:34:08.436Z,6.77
2023-04-10T06:36:37.901Z,7.33
2023-04-10T06:39:06.675Z,6.47
2023-04-10T06:41:33.652Z,6.60
2023-04-10T06:44:29.336Z,7.50
2023-04-10T06:46:56.077Z,5.97
2023-04-10T06:49:23.072Z,6.67
2023-04-10T06:51:49.853Z,5.90
2023-04-10T06:54:16.700Z,6.20
2023-04-10T06:56:43.556Z,6.40
2023-04-10T06:59:10.416Z,6.73
2023-04-10T07:01:37.472Z,6.63
2023-04-10T07:04:04.439Z,5.57
2023-04-10T07:06:31.554Z,5.40
2023-04-10T07:08:58.298Z,5.33
2023-04-10T07:11:25.357Z,5.57
2023-04-10T07:13:53.914Z,5.63
2023-04-10T07:16:20.874Z,4.80
2023-04-10T07:18:47.790Z,5.87
2023-04-10T07:21:14.614Z,4.90
2023-04-10T07:23:41.405Z,5.10
2023-04-10T07:26:08.254Z,5.20
2023-04-10T07:28:35.042Z,6.63
2023-04-10T07:31:01.888Z,5.20
2023-04-10T07:33:28.702Z,6.33
2023-04-10T07:35:55.605Z,5.80
2023-04-10T07:38:24.162Z,5.30
2023-04-10T07:40:56.535Z,5.43
2023-04-10T07:43:23.412Z,5.40
2023-04-10T07:45:50.432Z,4.97
2023-04-10T07:48:17.252Z,4.80
2023-04-10T07:50:44.029Z,5.40
2023-04-10T07:53:10.948Z,4.70
2023-04-10T07:55:42.950Z,4.70
2023-04-10T07:58:10.288Z,4.40
2023-04-10T08:00:37.536Z,5.13
2023-04-10T08:03:05.688Z,4.70
2023-04-10T08:05:32.982Z,4.60
2023-04-10T08:07:59.870Z,4.30
2023-04-10T08:10:26.514Z,4.57
2023-04-10T08:12:53.249Z,4.22
2023-04-10T08:15:19.928Z,4.25
2023-04-10T08:17:46.719Z,4.85
2023-04-10T08:20:16.088Z,4.50
2023-04-10T08:22:42.748Z,4.35
2023-04-10T08:25:09.822Z,4.57
2023-04-10T08:27:36.959Z,4.60
2023-04-10T08:30:04.354Z,4.13
2023-04-10T08:32:31.236Z,4.30
2023-04-10T08:34:58.279Z,4.70
2023-04-10T08:37:26.437Z,5.07
2023-04-10T08:39:53.733Z,4.45
2023-04-10T08:42:20.645Z,4.90
2023-04-10T08:44:49.738Z,5.88
2023-04-10T08:47:20.647Z,5.22
2023-04-10T08:49:57.495Z,4.10
2023-04-10T08:52:31.236Z,4.32
2023-04-10T08:55:02.592Z,4.50
2023-04-10T08:57:29.787Z,5.70
2023-04-10T08:59:58.555Z,3.72
2023-04-10T09:02:26.345Z,3.95
2023-04-10T09:04:55.248Z,3.92
2023-04-10T09:07:23.456Z,4.13
2023-04-10T09:09:50.244Z,4.45
2023-04-10T09:12:16.970Z,4.03
2023-04-10T09:14:43.745Z,5.32
2023-04-10T09:17:20.599Z,4.05
2023-04-10T09:19:55.643Z,4.20
2023-04-10T09:22:36.222Z,3.85
2023-04-10T09:25:04.352Z,3.60
2023-04-10T09:27:35.157Z,4.07
2023-04-10T09:30:02.703Z,3.65
2023-04-10T09:32:36.738Z,3.78
2023-04-10T09:35:05.038Z,3.95
2023-04-10T09:37:36.105Z,4.07
2023-04-10T09:40:04.134Z,3.85
2023-04-10T09:42:32.939Z,5.68
2023-04-10T09:45:00.173Z,6.50
2023-04-10T09:47:28.171Z,3.88
2023-04-10T09:49:57.473Z,3.72
2023-04-10T09:52:29.714Z,4.35
2023-04-10T09:54:57.500Z,4.00
2023-04-10T09:57:26.118Z,4.07
2023-04-10T09:59:55.010Z,3.95
2023-04-10T10:02:28.773Z,3.75
2023-04-10T10:04:57.355Z,4.32
2023-04-10T10:07:24.334Z,3.60
2023-04-10T10:09:52.532Z,3.75
2023-04-10T10:12:26.431Z,3.28
2023-04-10T10:15:09.002Z,3.50
2023-04-10T10:17:49.381Z,3.83
2023-04-10T10:20:18.222Z,3.22
2023-04-10T10:22:46.477Z,3.42
2023-04-10T10:25:13.542Z,3.08
2023-04-10T10:27:41.795Z,2.90
2023-04-10T10:30:28.086Z,2.92
2023-04-10T10:32:57.589Z,3.58
2023-04-10T10:35:28.714Z,2.80
2023-04-10T10:37:59.786Z,3.90
2023-04-10T10:40:40.318Z,2.95
2023-04-10T10:43:25.777Z,4.63
2023-04-10T10:46:01.996Z,3.40
2023-04-10T10:48:28.839Z,3.30
2023-04-10T10:50:58.913Z,3.13
2023-04-10T10:53:34.710Z,3.30
2023-04-10T10:56:19.515Z,3.50
2023-04-10T10:58:47.238Z,4.07
2023-04-10T11:01:15.091Z,3.22
2023-04-10T11:03:44.414Z,3.30
2023-04-10T11:06:17.175Z,3.15
2023-04-10T11:08:48.956Z,3.13
2023-04-10T11:11:18.361Z,3.00
2023-04-10T11:13:52.120Z,3.58
2023-04-10T11:16:20.755Z,3.40
2023-04-10T11:18:59.340Z,3.10
2023-04-10T11:22:00.190Z,3.75
2023-04-10T11:24:27.079Z,3.28
2023-04-10T11:26:53.992Z,3.38
2023-04-10T11:29:26.660Z,3.60
2023-04-10T11:32:00.991Z,3.60
2023-04-10T11:34:28.479Z,4.53
2023-04-10T11:36:55.297Z,3.03
2023-04-10T11:39:22.301Z,3.03
2023-04-10T11:41:51.397Z,2.90
2023-04-10T11:44:35.211Z,2.50
2023-04-10T11:47:02.100Z,3.00
2023-04-10T11:49:32.770Z,2.85
2023-04-10T11:51:59.695Z,3.13
2023-04-10T11:54:28.410Z,3.38
2023-04-10T11:57:01.143Z,3.00
2023-04-10T11:59:29.355Z,2.78
2023-04-10T12:02:07.843Z,3.60
2023-04-10T12:04:35.526Z,2.90
2023-04-10T12:07:02.656Z,2.90
2023-04-10T12:09:32.339Z,3.08
2023-04-10T12:12:03.360Z,2.97
2023-04-10T12:14:36.907Z,3.87
2023-04-10T12:17:05.502Z,3.47
2023-04-10T12:19:33.768Z,3.33
2023-04-10T12:22:02.857Z,2.90
2023-04-10T12:24:49.607Z,2.60
2023-04-10T12:27:23.916Z,2.97
2023-04-10T12:29:53.124Z,2.23
2023-04-10T12:32:20.682Z,2.40
2023-04-10T12:34:52.056Z,1.90
2023-04-10T12:37:19.923Z,2.40
2023-04-10T12:39:46.856Z,2.30
2023-04-10T12:42:22.904Z,2.60
2023-04-10T12:44:51.442Z,2.40
2023-04-10T12:47:18.187Z,3.00
2023-04-10T12:50:08.701Z,2.53
2023-04-10T12:52:36.365Z,2.40
2023-04-10T12:55:15.413Z,2.23
2023-04-10T12:57:44.412Z,3.50
2023-04-10T13:00:13.740Z,2.43
2023-04-10T13:02:41.381Z,2.30
2023-04-10T13:05:09.119Z,2.20
2023-04-10T13:07:37.297Z,2.10
2023-04-10T13:10:05.839Z,2.20
2023-04-10T13:12:34.729Z,2.53
2023-04-10T13:15:01.931Z,2.17
2023-04-10T13:17:28.880Z,2.97
2023-04-10T13:19:55.716Z,2.17
2023-04-10T13:22:22.602Z,2.13
2023-04-10T13:24:49.387Z,2.70
2023-04-10T13:27:16.183Z,2.23
2023-04-10T13:29:43.386Z,1.77
2023-04-10T13:32:10.747Z,2.43
2023-04-10T13:34:37.623Z,2.67
2023-04-10T13:37:04.632Z,2.10
2023-04-10T13:39:31.825Z,4.30
2023-04-10T13:41:59.466Z,2.47
2023-04-10T13:44:26.533Z,2.20
2023-04-10T13:46:53.808Z,2.97
2023-04-10T13:49:22.090Z,2.37
2023-04-10T13:51:49.078Z,2.80
2023-04-10T13:54:18.840Z,2.70
2023-04-10T13:56:46.436Z,3.27
2023-04-10T13:59:13.698Z,2.60
2023-04-10T14:01:40.969Z,2.83
2023-04-10T14:04:08.361Z,3.23
2023-04-10T14:06:35.301Z,2.37
2023-04-10T14:09:02.162Z,2.10
2023-04-10T14:11:28.911Z,3.07
2023-04-10T14:13:55.776Z,3.93
2023-04-10T14:16:22.516Z,2.73
2023-04-10T14:18:49.225Z,2.37
2023-04-10T14:21:16.554Z,2.80
2023-04-10T14:23:43.572Z,2.80
2023-04-10T14:26:10.287Z,2.77
2023-04-10T14:28:37.012Z,4.97
2023-04-10T14:31:04.838Z,2.57
2023-04-10T14:33:31.801Z,2.00
2023-04-10T14:35:58.609Z,2.93
2023-04-10T14:38:25.333Z,3.10
2023-04-10T14:40:53.738Z,3.10
2023-04-10T14:43:20.907Z,2.70
2023-04-10T14:45:47.734Z,4.57
2023-04-10T14:48:14.792Z,3.90
2023-04-10T14:50:41.627Z,2.33
2023-04-10T14:53:09.958Z,2.67
2023-04-10T14:55:37.351Z,2.90
2023-04-10T14:58:06.576Z,4.73
2023-04-10T15:00:33.267Z,2.57
2023-04-10T15:03:00.406Z,4.07
2023-04-10T15:05:27.949Z,4.60
2023-04-10T15:07:55.143Z,3.60
2023-04-10T15:10:22.085Z,3.23
2023-04-10T15:12:48.862Z,2.57
2023-04-10T15:15:15.769Z,2.93
2023-04-10T15:17:42.603Z,4.80
2023-04-10T15:20:09.982Z,3.27
2023-04-10T15:22:36.715Z,2.70
2023-04-10T15:25:03.695Z,2.83
2023-04-10T15:27:30.663Z,3.07
2023-04-10T15:29:57.575Z,3.37
2023-04-10T15:32:24.347Z,2.80
2023-04-10T15:34:51.040Z,2.40
2023-04-10T15:37:17.705Z,3.37
2023-04-10T15:39:44.435Z,1.93
2023-04-10T15:42:11.180Z,3.40
2023-04-10T15:44:37.934Z,3.90
2023-04-10T15:47:04.706Z,3.77
2023-04-10T15:49:37.995Z,4.60
2023-04-10T15:52:08.532Z,2.70
2023-04-10T15:54:35.773Z,2.13
2023-04-10T15:57:03.533Z,2.57
2023-04-10T15:59:30.355Z,3.10
2023-04-10T16:01:57.226Z,3.63
2023-04-10T16:04:24.360Z,2.23
2023-04-10T16:06:51.294Z,2.50
2023-04-10T16:11:48.324Z,2.57
2023-04-10T16:14:15.073Z,3.40
2023-04-10T16:16:41.812Z,2.90
2023-04-10T16:19:09.816Z,2.53
2023-04-10T16:21:36.893Z,2.30
2023-04-10T16:24:04.202Z,2.27
2023-04-10T16:26:31.131Z,2.97
2023-04-10T16:28:57.850Z,3.27
2023-04-10T16:31:24.725Z,2.80
2023-04-10T16:33:51.394Z,3.13
2023-04-10T16:36:18.113Z,2.73
2023-04-10T16:38:45.250Z,2.30
2023-04-10T16:41:12.639Z,2.87
2023-04-10T16:43:39.545Z,3.23
2023-04-10T16:46:07.393Z,3.83
2023-04-10T16:48:36.185Z,2.80
2023-04-10T16:51:06.157Z,3.07
2023-04-10T16:53:35.715Z,2.77
2023-04-10T16:56:04.833Z,3.40
2023-04-10T16:58:33.805Z,2.93
2023-04-10T17:01:00.729Z,3.80
2023-04-10T17:03:27.625Z,4.63
2023-04-10T17:05:54.379Z,4.10
2023-04-10T17:08:21.082Z,4.07
2023-04-10T17:10:47.805Z,6.37
2023-04-10T17:13:14.638Z,3.80
2023-04-10T17:15:41.381Z,3.43
2023-04-10T17:18:08.408Z,3.30
2023-04-10T17:20:37.035Z,4.23
2023-04-10T17:23:03.980Z,3.00
2023-04-10T17:25:30.976Z,3.53
2023-04-10T17:27:57.987Z,3.43
2023-04-10T17:30:24.765Z,2.80
2023-04-10T17:32:51.605Z,4.43
2023-04-10T17:35:18.534Z,4.97
2023-04-10T17:37:45.412Z,3.20
2023-04-10T17:40:12.503Z,3.60
2023-04-10T17:42:39.262Z,4.50
2023-04-10T17:45:06.597Z,2.93
2023-04-10T17:47:33.390Z,3.40
2023-04-10T17:50:00.016Z,5.60
2023-04-10T17:52:26.742Z,3.10
2023-04-10T17:54:53.458Z,3.77
2023-04-10T17:57:20.157Z,3.10
2023-04-10T17:59:46.857Z,4.27
2023-04-10T18:02:13.561Z,3.17
2023-04-10T18:04:40.306Z,3.57
2023-04-10T18:07:07.034Z,3.43
2023-04-10T18:09:33.693Z,3.57
2023-04-10T18:12:01.501Z,4.13
2023-04-10T18:14:28.199Z,3.03
2023-04-10T18:16:55.091Z,2.90
2023-04-10T18:19:21.956Z,3.10
2023-04-10T18:21:49.270Z,3.90
2023-04-10T18:24:16.136Z,3.63
2023-04-10T18:26:43.084Z,5.00
2023-04-10T18:29:09.784Z,3.63
2023-04-10T18:31:36.564Z,3.43
2023-04-10T18:34:07.875Z,3.83
2023-04-10T18:36:35.520Z,3.87
2023-04-10T18:39:02.253Z,3.00
2023-04-10T18:41:28.995Z,4.27
2023-04-10T18:44:04.147Z,3.83
2023-04-10T18:46:32.531Z,3.30
2023-04-10T18:49:00.957Z,2.97
2023-04-10T18:51:28.326Z,3.70
2023-04-10T18:53:55.465Z,3.30
2023-04-10T18:56:22.799Z,3.40
2023-04-10T18:58:50.303Z,3.83
2023-04-10T19:01:20.199Z,2.73
2023-04-10T19:03:50.079Z,3.40
2023-04-10T19:06:23.651Z,3.90
2023-04-10T19:08:51.088Z,4.90
2023-04-10T19:11:18.632Z,3.37
2023-04-10T19:13:45.482Z,3.30
2023-04-10T19:16:19.059Z,4.43
2023-04-10T19:18:49.305Z,4.07
2023-04-10T19:21:16.051Z,3.13
2023-04-10T19:23:42.774Z,3.50
2023-04-10T19:26:09.798Z,4.10
2023-04-10T19:28:36.605Z,3.30
2023-04-10T19:31:03.338Z,3.40
2023-04-10T19:33:30.386Z,3.63
2023-04-10T19:35:58.251Z,4.13
2023-04-10T19:38:25.210Z,5.67
2023-04-10T19:40:51.996Z,3.23
2023-04-10T19:43:18.783Z,2.67
2023-04-10T19:45:45.813Z,2.83
2023-04-10T19:48:12.572Z,3.07
2023-04-10T19:50:39.338Z,3.13
2023-04-10T19:53:12.904Z,3.40
2023-04-10T19:55:42.707Z,3.90
2023-04-10T19:58:13.439Z,3.37
2023-04-10T20:00:47.825Z,3.37
2023-04-10T20:03:16.121Z,5.97
2023-04-10T20:05:43.012Z,4.03
2023-04-10T20:08:09.754Z,2.87
2023-04-10T20:10:36.715Z,4.60
2023-04-10T20:13:03.484Z,3.17
2023-04-10T20:15:30.185Z,3.13
2023-04-10T20:17:56.962Z,3.83
2023-04-10T20:20:23.719Z,3.77
2023-04-10T20:22:50.556Z,3.83
2023-04-10T20:25:17.238Z,5.07
2023-04-10T20:27:43.925Z,3.60
2023-04-10T20:30:10.929Z,4.10
2023-04-10T20:32:37.697Z,4.43
2023-04-10T20:35:04.794Z,3.80
2023-04-10T20:37:31.539Z,5.30
2023-04-10T20:39:58.435Z,4.87
2023-04-10T20:42:25.132Z,3.50
2023-04-10T20:44:51.860Z,3.73
2023-04-10T20:47:18.581Z,5.57
2023-04-10T20:49:47.801Z,3.30
2023-04-10T20:52:14.545Z,3.30
2023-04-10T20:54:41.317Z,7.10
2023-04-10T20:57:08.048Z,3.87
2023-04-10T20:59:36.042Z,4.20
2023-04-10T21:02:03.158Z,3.87
2023-04-10T21:04:30.029Z,5.80
2023-04-10T21:06:56.661Z,4.53
2023-04-10T21:09:23.365Z,4.53
2023-04-10T21:11:50.117Z,5.17
2023-04-10T21:14:16.881Z,3.43
2023-04-10T21:16:45.756Z,5.80
2023-04-10T21:19:12.549Z,4.53
2023-04-10T21:21:42.030Z,3.90
2023-04-10T21:24:08.747Z,4.10
2023-04-10T21:26:35.527Z,3.63
2023-04-10T21:29:02.273Z,3.33
2023-04-10T21:31:29.045Z,3.43
2023-04-10T21:33:55.811Z,3.47
2023-04-10T21:36:22.494Z,3.93
2023-04-10T21:38:49.198Z,5.67
2023-04-10T21:41:15.951Z,6.90
2023-04-10T21:43:43.192Z,5.40
2023-04-10T21:46:10.051Z,3.83
2023-04-10T21:48:36.988Z,4.67
2023-04-10T21:51:03.903Z,4.73
2023-04-10T21:53:30.767Z,3.13
2023-04-10T21:55:57.978Z,4.73
2023-04-10T21:58:24.663Z,5.43
2023-04-10T22:00:54.533Z,3.57
2023-04-10T22:03:22.232Z,3.63
2023-04-10T22:05:50.162Z,3.37
2023-04-10T22:08:19.822Z,4.50
2023-04-10T22:10:50.435Z,4.37
2023-04-10T22:13:29.741Z,6.40
2023-04-10T22:15:57.676Z,3.97
2023-04-10T22:18:24.336Z,3.57
2023-04-10T22:20:51.099Z,4.47
2023-04-10T22:23:17.746Z,4.50
2023-04-10T22:25:44.466Z,3.00
2023-04-10T22:28:11.187Z,3.40
2023-04-10T22:30:37.880Z,3.13
2023-04-10T22:33:04.663Z,3.27
2023-04-10T22:35:31.454Z,2.20
2023-04-10T22:37:58.258Z,1.43
2023-04-10T22:40:25.471Z,2.10
2023-04-10T22:42:53.330Z,0.97
2023-04-10T22:45:20.280Z,3.07
2023-04-10T22:47:47.137Z,2.90
2023-04-10T22:50:13.885Z,2.83
2023-04-10T22:52:40.633Z,3.03
2023-04-10T22:55:07.931Z,3.17
2023-04-10T22:57:35.837Z,3.50
2023-04-10T23:00:02.653Z,3.10
2023-04-10T23:02:31.334Z,3.73
2023-04-10T23:04:58.442Z,4.50
2023-04-10T23:07:25.884Z,2.53
2023-04-10T23:09:52.602Z,2.57
2023-04-10T23:12:19.347Z,2.67
2023-04-10T23:14:46.094Z,2.60
2023-04-10T23:17:12.854Z,5.17
2023-04-10T23:19:39.580Z,3.10
2023-04-10T23:22:07.247Z,3.27
2023-04-10T23:24:34.019Z,3.13
2023-04-10T23:27:00.690Z,3.03
2023-04-10T23:29:30.886Z,2.80
2023-04-10T23:32:00.666Z,3.27
2023-04-10T23:34:27.525Z,4.53
2023-04-10T23:36:54.646Z,1.33
2023-04-10T23:39:21.329Z,3.03
2023-04-10T23:41:48.105Z,3.13
2023-04-10T23:44:14.768Z,2.60
2023-04-10T23:46:41.528Z,3.53
2023-04-10T23:49:08.405Z,4.53
2023-04-10T23:51:35.074Z,4.37
2023-04-10T23:54:01.812Z,3.13
2023-04-10T23:56:29.405Z,3.33
2023-04-10T23:58:56.419Z,3.73
